Time;durP1;ratioP1;P1;durP2;ratioP2;P2;SDS_P1;SDS_P2;PMS_P1;PMS_P2;Temp;Humidity;BMP_temperature;BMP_pressure;BME280_temperature;BME280_humidity;BME280_pressure;Samples;Min_cycle;Max_cycle;Signal;HPM_P1;HPM_P2
2023/04/18 00:01:08;;;;;;;10.15;9.07;;;;;;;5.25;100.00;96191.19;5079768;28;20048;-77
2023/04/18 00:03:36;;;;;;;11.88;10.65;;;;;;;5.20;100.00;96185.41;5073491;28;20087;-77
2023/04/18 00:06:03;;;;;;;12.93;11.48;;;;;;;5.23;100.00;96190.44;5080409;28;20048;-77
2023/04/18 00:08:30;;;;;;;11.82;10.68;;;;;;;5.14;100.00;96181.28;5075293;28;20045;-77
2023/04/18 00:10:58;;;;;;;13.43;12.10;;;;;;;5.09;100.00;96180.63;5074591;28;20569;-77
2023/04/18 00:13:27;;;;;;;12.07;10.43;;;;;;;5.25;100.00;96178.34;5075448;28;20044;-77
2023/04/18 00:15:53;;;;;;;14.25;11.02;;;;;;;5.28;100.00;96183.38;5072431;28;20464;-76
2023/04/18 00:18:20;;;;;;;16.40;11.88;;;;;;;5.27;100.00;96171.44;5076893;28;20041;-76
2023/04/18 00:20:47;;;;;;;11.48;9.70;;;;;;;5.40;100.00;96182.94;5077728;28;20498;-76
2023/04/18 00:23:13;;;;;;;12.27;9.95;;;;;;;5.47;100.00;96171.56;5077669;28;20080;-77
2023/04/18 00:25:40;;;;;;;10.63;9.60;;;;;;;5.57;100.00;96172.06;5066797;28;20589;-76
2023/04/18 00:28:08;;;;;;;10.23;9.25;;;;;;;5.58;100.00;96169.44;5087111;28;20052;-77
2023/04/18 00:30:35;;;;;;;11.98;10.77;;;;;;;5.51;100.00;96172.28;5069696;28;20140;-77
2023/04/18 00:33:03;;;;;;;15.45;11.98;;;;;;;5.57;100.00;96166.94;5073935;28;20411;-77
2023/04/18 00:35:30;;;;;;;13.40;11.98;;;;;;;5.46;100.00;96169.91;5085949;28;20048;-77
2023/04/18 00:37:57;;;;;;;15.40;12.43;;;;;;;5.47;100.00;96169.00;5081459;28;20488;-77
2023/04/18 00:40:23;;;;;;;14.00;11.98;;;;;;;5.34;100.00;96173.75;5076916;28;20048;-76
2023/04/18 00:42:50;;;;;;;13.93;12.55;;;;;;;5.43;100.00;96169.16;5080586;28;20044;-76
2023/04/18 00:45:18;;;;;;;15.45;12.07;;;;;;;5.27;100.00;96161.19;5074156;28;20059;-76
2023/04/18 00:47:44;;;;;;;13.55;10.75;;;;;;;5.33;100.00;96163.50;5084566;28;20535;-77
2023/04/18 00:50:12;;;;;;;17.83;13.38;;;;;;;5.24;100.00;96159.53;5078789;28;20522;-76
2023/04/18 00:52:39;;;;;;;14.02;11.77;;;;;;;5.31;100.00;96165.31;5080901;28;20059;-76
2023/04/18 00:55:07;;;;;;;13.60;12.27;;;;;;;5.41;100.00;96161.50;5074240;28;20048;-77
2023/04/18 00:57:34;;;;;;;16.60;12.07;;;;;;;5.47;100.00;96155.31;5071719;28;20049;-77
2023/04/18 01:00:08;;;;;;;18.27;11.70;;;;;;;5.54;100.00;96165.31;5080389;28;20048;-76
2023/04/18 01:02:38;;;;;;;13.57;12.27;;;;;;;5.59;100.00;96160.00;5079937;28;20511;-76
2023/04/18 01:05:06;;;;;;;13.25;11.82;;;;;;;5.59;100.00;96160.00;5081130;28;20563;-77
2023/04/18 01:07:33;;;;;;;15.43;11.98;;;;;;;5.61;100.00;96154.81;5083427;28;20056;-76
2023/04/18 01:10:00;;;;;;;14.65;13.23;;;;;;;5.67;100.00;96152.00;5082494;28;20068;-76
2023/04/18 01:12:26;;;;;;;16.90;13.35;;;;;;;5.78;100.00;96155.88;5075160;28;20048;-77
2023/04/18 01:14:53;;;;;;;18.98;14.77;;;;;;;5.82;100.00;96148.84;5076742;28;20041;-77
2023/04/18 01:17:21;;;;;;;15.23;13.65;;;;;;;5.89;100.00;96149.47;5070607;28;20055;-75
2023/04/18 01:19:49;;;;;;;15.63;13.32;;;;;;;5.89;100.00;96147.72;5063923;28;20131;-76
2023/04/18 01:22:17;;;;;;;18.50;14.85;;;;;;;5.73;100.00;96141.50;5074962;28;20052;-76
2023/04/18 01:24:45;;;;;;;20.85;15.48;;;;;;;5.69;100.00;96135.63;5072088;28;20048;-77
2023/04/18 01:27:12;;;;;;;15.10;13.52;;;;;;;5.63;100.00;96140.16;5081144;28;20087;-77
2023/04/18 01:29:38;;;;;;;17.05;14.70;;;;;;;5.52;100.00;96127.72;5077453;28;20098;-77
2023/04/18 01:32:05;;;;;;;18.17;14.95;;;;;;;5.49;100.00;96126.13;5081260;28;20059;-77
2023/04/18 01:34:32;;;;;;;17.52;14.65;;;;;;;5.47;100.00;96125.31;5088328;28;20054;-77
2023/04/18 01:36:59;;;;;;;17.73;14.35;;;;;;;5.46;100.00;96125.38;5068982;28;20040;-78
2023/04/18 01:39:25;;;;;;;19.95;14.32;;;;;;;5.51;100.00;96124.31;5065621;28;20052;-76
2023/04/18 01:41:53;;;;;;;21.35;13.00;;;;;;;5.56;100.00;96127.56;5070588;28;20105;-76
2023/04/18 01:44:20;;;;;;;27.02;14.80;;;;;;;5.66;100.00;96122.91;5085291;28;20044;-76
2023/04/18 01:46:46;;;;;;;14.30;12.90;;;;;;;5.58;100.00;96119.78;5067551;28;20049;-76
2023/04/18 01:49:13;;;;;;;15.98;14.38;;;;;;;5.49;100.00;96107.28;5075475;28;20053;-76
2023/04/18 01:51:39;;;;;;;15.73;13.73;;;;;;;5.50;100.00;96116.66;5081442;28;20071;-76
2023/04/18 01:54:06;;;;;;;16.45;14.35;;;;;;;5.30;100.00;96102.84;5068689;28;20052;-77
2023/04/18 01:56:32;;;;;;;17.88;14.60;;;;;;;5.21;100.00;96104.91;5067255;28;20045;-76
2023/04/18 01:59:00;;;;;;;16.27;14.27;;;;;;;5.31;100.00;96101.94;5059505;28;20044;-76
2023/04/18 02:01:27;;;;;;;15.80;13.35;;;;;;;5.21;100.00;96103.16;5076100;28;20049;-76
2023/04/18 02:03:53;;;;;;;18.80;14.13;;;;;;;5.38;100.00;96106.81;5074941;28;20490;-76
2023/04/18 02:06:19;;;;;;;18.80;14.50;;;;;;;5.43;100.00;96107.50;5076383;28;20498;-77
2023/04/18 02:08:46;;;;;;;17.05;14.20;;;;;;;5.48;100.00;96109.00;5081143;28;20395;-76
2023/04/18 02:11:12;;;;;;;15.52;14.02;;;;;;;5.45;100.00;96106.56;5084371;28;20047;-76
2023/04/18 02:13:39;;;;;;;16.92;14.77;;;;;;;5.41;100.00;96109.28;5066624;28;20056;-77
2023/04/18 02:16:11;;;;;;;21.15;14.90;;;;;;;5.45;100.00;96101.44;5072331;28;20048;-76
2023/04/18 02:18:38;;;;;;;18.38;14.90;;;;;;;5.51;100.00;96101.19;5071609;28;20048;-76
2023/04/18 02:21:06;;;;;;;16.33;13.88;;;;;;;5.47;100.00;96102.19;5079385;28;20486;-76
2023/04/18 02:23:32;;;;;;;18.70;14.27;;;;;;;5.50;100.00;96103.81;5081602;28;20045;-77
2023/04/18 02:25:59;;;;;;;16.63;14.88;;;;;;;5.55;100.00;96102.75;5073678;28;20052;-77
2023/04/18 02:28:25;;;;;;;18.23;15.50;;;;;;;5.46;100.00;96108.25;5087619;28;20045;-76
2023/04/18 02:30:51;;;;;;;17.50;14.35;;;;;;;5.52;100.00;96107.16;5079121;28;20044;-76
2023/04/18 02:33:19;;;;;;;17.85;14.68;;;;;;;5.48;100.00;96103.88;5074346;28;20052;-78
2023/04/18 02:35:46;;;;;;;17.35;15.45;;;;;;;5.44;100.00;96101.47;5086776;28;20047;-77
2023/04/18 02:38:13;;;;;;;17.35;15.63;;;;;;;5.59;100.00;96100.91;5077008;28;20055;-76
2023/04/18 02:40:39;;;;;;;18.17;15.70;;;;;;;5.62;100.00;96107.66;5076901;28;20049;-77
2023/04/18 02:43:05;;;;;;;17.30;15.45;;;;;;;5.65;100.00;96099.84;5083232;28;20039;-77
2023/04/18 02:45:32;;;;;;;17.00;15.23;;;;;;;5.70;100.00;96103.91;5081056;28;20052;-77
2023/04/18 02:47:58;;;;;;;21.77;15.13;;;;;;;5.61;100.00;96108.56;5083428;28;20087;-76
2023/04/18 02:50:27;;;;;;;17.52;15.02;;;;;;;5.66;100.00;96110.03;5071518;28;20487;-76
2023/04/18 02:52:54;;;;;;;22.90;15.50;;;;;;;5.62;100.00;96100.78;5071660;28;20494;-77
2023/04/18 02:55:21;;;;;;;17.40;15.00;;;;;;;5.61;100.00;96111.13;5071375;28;20827;-76
2023/04/18 02:57:48;;;;;;;17.33;15.50;;;;;;;5.66;100.00;96106.66;5075248;28;20084;-76
2023/04/18 03:00:15;;;;;;;18.42;16.58;;;;;;;5.57;100.00;96108.69;5071160;28;20044;-76
2023/04/18 03:02:41;;;;;;;19.65;16.33;;;;;;;5.64;100.00;96109.28;5072884;28;20419;-76
2023/04/18 03:05:08;;;;;;;16.02;14.52;;;;;;;5.60;100.00;96112.88;5081527;28;20044;-76
2023/04/18 03:07:35;;;;;;;16.42;14.77;;;;;;;5.58;100.00;96100.06;5077783;28;20052;-76
2023/04/18 03:10:02;;;;;;;16.73;14.95;;;;;;;5.58;100.00;96096.66;5078532;28;20047;-76
2023/04/18 03:12:29;;;;;;;20.45;15.63;;;;;;;5.56;100.00;96098.44;5072344;28;20508;-76
2023/04/18 03:14:55;;;;;;;22.80;14.93;;;;;;;5.61;100.00;96098.28;5068600;28;20052;-76
2023/04/18 03:17:22;;;;;;;17.15;14.52;;;;;;;5.68;100.00;96092.03;5076685;28;20044;-76
2023/04/18 03:19:49;;;;;;;20.50;14.35;;;;;;;5.67;100.00;96090.31;5083710;28;20075;-76
2023/04/18 03:22:15;;;;;;;17.45;15.68;;;;;;;5.75;100.00;96094.28;5077069;28;20048;-76
2023/04/18 03:24:43;;;;;;;15.73;13.75;;;;;;;5.51;100.00;96085.78;5080753;28;20048;-76
2023/04/18 03:27:10;;;;;;;16.90;15.07;;;;;;;5.67;100.00;96090.31;5067235;28;20510;-76
2023/04/18 03:29:37;;;;;;;17.38;15.52;;;;;;;5.81;100.00;96091.47;5075367;28;20053;-76
2023/04/18 03:32:04;;;;;;;20.15;15.90;;;;;;;5.95;100.00;96090.97;5069798;28;20041;-76
2023/04/18 03:34:31;;;;;;;19.23;15.27;;;;;;;5.70;100.00;96090.22;5084231;28;20123;-76
2023/04/18 03:36:57;;;;;;;17.10;15.32;;;;;;;5.77;100.00;96089.91;5072414;28;20049;-76
2023/04/18 03:39:24;;;;;;;17.75;15.60;;;;;;;5.58;100.00;96089.78;5067829;28;20044;-76
2023/04/18 03:41:52;;;;;;;18.92;16.35;;;;;;;5.57;100.00;96090.69;5074707;28;20076;-76
2023/04/18 03:44:18;;;;;;;19.02;15.73;;;;;;;5.58;100.00;96083.81;5069030;28;20044;-76
2023/04/18 03:46:45;;;;;;;25.23;16.27;;;;;;;5.62;100.00;96090.50;5079205;28;20050;-76
2023/04/18 03:49:11;;;;;;;18.33;15.93;;;;;;;5.66;100.00;96089.50;5081346;28;20044;-76
2023/04/18 03:51:43;;;;;;;16.88;15.02;;;;;;;5.64;100.00;96087.91;5073937;28;20048;-76
2023/04/18 03:54:09;;;;;;;18.15;15.00;;;;;;;5.60;100.00;96084.59;5081602;28;20040;-76
2023/04/18 03:56:36;;;;;;;19.50;17.20;;;;;;;5.49;100.00;96090.16;5076420;28;20057;-76
2023/04/18 03:59:04;;;;;;;25.30;15.48;;;;;;;5.39;100.00;96086.25;5063848;28;20055;-77
2023/04/18 04:01:31;;;;;;;15.98;14.30;;;;;;;5.35;100.00;96084.69;5076894;28;20073;-76
2023/04/18 04:03:57;;;;;;;17.48;15.70;;;;;;;5.40;100.00;96090.47;5071541;28;20040;-76
2023/04/18 04:06:24;;;;;;;21.10;15.48;;;;;;;5.54;100.00;96088.22;5083028;28;20052;-76
2023/04/18 04:08:51;;;;;;;16.77;15.02;;;;;;;5.74;100.00;96099.47;5070790;28;20056;-77
2023/04/18 04:11:17;;;;;;;20.60;15.63;;;;;;;5.63;100.00;96094.75;5075031;28;20051;-77
2023/04/18 04:13:44;;;;;;;18.08;15.82;;;;;;;5.50;100.00;96096.94;5078172;28;20533;-78
2023/04/18 04:16:12;;;;;;;22.83;17.10;;;;;;;5.53;100.00;96096.84;5074742;28;20076;-75
2023/04/18 04:18:39;;;;;;;24.23;18.02;;;;;;;5.46;100.00;96107.41;5070018;28;20053;-75
2023/04/18 04:21:05;;;;;;;20.58;17.42;;;;;;;5.21;100.00;96107.47;5074118;28;20041;-75
2023/04/18 04:23:33;;;;;;;20.85;16.05;;;;;;;5.35;100.00;96094.97;5076980;28;20049;-76
2023/04/18 04:26:02;;;;;;;21.60;16.15;;;;;;;5.44;100.00;96098.91;5078268;28;20052;-76
2023/04/18 04:28:29;;;;;;;30.60;18.60;;;;;;;5.50;100.00;96101.25;5079637;28;20095;-76
2023/04/18 04:30:56;;;;;;;22.92;17.02;;;;;;;5.42;100.00;96104.13;5070943;28;20044;-76
2023/04/18 04:33:27;;;;;;;21.40;18.63;;;;;;;5.46;100.00;96108.25;5073680;28;20046;-76
2023/04/18 04:35:54;;;;;;;22.23;17.42;;;;;;;5.50;100.00;96109.78;5083500;28;20457;-76
2023/04/18 04:38:21;;;;;;;19.10;15.95;;;;;;;5.31;100.00;96098.53;5079878;28;20044;-76
2023/04/18 04:40:48;;;;;;;21.40;18.38;;;;;;;5.40;100.00;96105.88;5068844;28;20400;-76
2023/04/18 04:43:15;;;;;;;23.55;17.33;;;;;;;5.22;100.00;96098.84;5074058;28;20040;-76
2023/04/18 04:45:42;;;;;;;27.48;18.48;;;;;;;5.19;100.00;96104.09;5089084;28;20091;-76
2023/04/18 04:48:09;;;;;;;20.13;17.60;;;;;;;5.31;100.00;96109.66;5088978;28;20066;-76
2023/04/18 04:50:38;;;;;;;20.88;17.50;;;;;;;5.31;100.00;96106.25;5077401;28;20044;-76
2023/04/18 04:53:05;;;;;;;28.17;18.08;;;;;;;5.04;100.00;96113.19;5085430;28;20054;-76
2023/04/18 04:55:32;;;;;;;19.48;17.40;;;;;;;5.00;100.00;96117.59;5086203;28;20051;-76
2023/04/18 04:57:59;;;;;;;19.35;17.35;;;;;;;5.07;100.00;96119.06;5077258;28;20114;-76
2023/04/18 05:00:25;;;;;;;18.23;16.38;;;;;;;4.93;100.00;96116.16;5088982;28;20128;-76
2023/04/18 05:02:53;;;;;;;23.88;17.88;;;;;;;5.18;100.00;96115.28;5064812;28;20060;-76
2023/04/18 05:05:19;;;;;;;24.33;16.92;;;;;;;4.89;100.00;96117.13;5085190;28;20055;-76
2023/04/18 05:07:48;;;;;;;20.65;17.35;;;;;;;5.01;100.00;96113.31;5078050;28;20052;-76
2023/04/18 05:10:14;;;;;;;18.27;16.50;;;;;;;4.94;100.00;96106.72;5082066;28;20075;-77
2023/04/18 05:12:41;;;;;;;20.42;16.20;;;;;;;5.03;100.00;96106.38;5086845;28;20057;-77
2023/04/18 05:15:08;;;;;;;18.73;16.73;;;;;;;5.00;100.00;96120.16;5075553;28;20518;-77
2023/04/18 05:17:34;;;;;;;20.23;18.15;;;;;;;4.94;100.00;96115.25;5086429;28;20414;-77
2023/04/18 05:20:01;;;;;;;19.00;15.90;;;;;;;5.01;100.00;96109.03;5073950;28;20495;-76
2023/04/18 05:22:27;;;;;;;21.33;17.60;;;;;;;4.95;100.00;96106.66;5091443;28;20043;-76
2023/04/18 05:24:55;;;;;;;18.50;16.55;;;;;;;5.07;100.00;96106.22;5083848;28;20055;-76
2023/04/18 05:27:21;;;;;;;19.25;17.08;;;;;;;5.04;100.00;96121.75;5076118;28;20056;-75
2023/04/18 05:29:49;;;;;;;19.38;16.45;;;;;;;5.05;100.00;96120.03;5076652;28;20059;-76
2023/04/18 05:32:15;;;;;;;20.05;16.67;;;;;;;5.09;100.00;96112.16;5072383;28;20048;-74
2023/04/18 05:34:42;;;;;;;24.50;18.83;;;;;;;4.98;100.00;96106.56;5079902;28;20494;-76
2023/04/18 05:37:08;;;;;;;19.55;17.35;;;;;;;5.26;100.00;96105.56;5073331;28;20071;-77
2023/04/18 05:39:35;;;;;;;27.02;19.08;;;;;;;5.23;100.00;96106.53;5076882;28;20048;-77
2023/04/18 05:42:02;;;;;;;19.70;17.58;;;;;;;5.21;100.00;96107.47;5076972;28;20499;-77
2023/04/18 05:44:29;;;;;;;20.08;17.65;;;;;;;5.23;100.00;96121.09;5087534;28;20055;-77
2023/04/18 05:46:56;;;;;;;22.52;19.30;;;;;;;5.39;100.00;96122.19;5068820;28;20409;-77
2023/04/18 05:49:22;;;;;;;20.27;16.95;;;;;;;5.13;100.00;96130.00;5081111;28;20492;-77
2023/04/18 05:51:49;;;;;;;23.25;18.45;;;;;;;5.21;100.00;96136.53;5072078;28;20041;-76
2023/04/18 05:54:15;;;;;;;20.10;17.95;;;;;;;5.07;100.00;96142.16;5075754;28;20044;-76
2023/04/18 05:56:42;;;;;;;20.63;17.23;;;;;;;5.04;100.00;96141.44;5062783;28;20062;-76
2023/04/18 05:59:10;;;;;;;20.25;17.67;;;;;;;5.28;100.00;96137.16;5072930;28;20045;-77
2023/04/18 06:01:36;;;;;;;20.20;17.52;;;;;;;5.19;100.00;96142.63;5069714;28;20048;-78
2023/04/18 06:04:03;;;;;;;21.42;17.95;;;;;;;5.31;100.00;96150.72;5067625;28;20055;-77
2023/04/18 06:06:30;;;;;;;21.10;16.65;;;;;;;5.32;100.00;96149.84;5076891;28;20049;-78
2023/04/18 06:08:56;;;;;;;23.90;17.77;;;;;;;5.20;100.00;96147.72;5080671;28;20532;-79
2023/04/18 06:11:23;;;;;;;19.80;17.00;;;;;;;5.14;100.00;96144.53;5078423;28;20507;-78
2023/04/18 06:13:49;;;;;;;23.90;18.17;;;;;;;5.27;100.00;96153.47;5082747;28;20498;-78
2023/04/18 06:16:17;;;;;;;18.80;16.85;;;;;;;5.27;100.00;96150.91;5080404;28;20059;-77
2023/04/18 06:18:43;;;;;;;21.17;17.30;;;;;;;5.37;100.00;96146.25;5081915;28;20051;-77
2023/04/18 06:21:10;;;;;;;18.85;16.95;;;;;;;5.04;100.00;96152.56;5070571;28;20055;-77
2023/04/18 06:23:37;;;;;;;19.40;17.00;;;;;;;5.14;100.00;96145.34;5077243;28;20048;-77
2023/04/18 06:26:04;;;;;;;18.40;16.48;;;;;;;5.25;100.00;96144.97;5085915;28;20040;-77
2023/04/18 06:28:30;;;;;;;22.17;17.38;;;;;;;5.22;100.00;96135.63;5080345;28;20040;-77
2023/04/18 06:30:56;;;;;;;18.77;16.17;;;;;;;5.38;100.00;96141.09;5078252;28;20044;-77
2023/04/18 06:33:24;;;;;;;19.52;17.55;;;;;;;5.45;100.00;96139.97;5074834;28;20039;-77
2023/04/18 06:35:51;;;;;;;21.67;18.10;;;;;;;5.57;100.00;96142.06;5077394;28;20056;-77
2023/04/18 06:38:18;;;;;;;17.77;15.90;;;;;;;5.41;100.00;96145.25;5073623;28;20509;-77
2023/04/18 06:40:44;;;;;;;23.17;18.13;;;;;;;5.49;100.00;96144.09;5081007;28;20051;-77
2023/04/18 06:43:10;;;;;;;22.70;17.48;;;;;;;5.64;100.00;96160.69;5062469;28;20772;-76
2023/04/18 06:45:37;;;;;;;19.95;17.58;;;;;;;5.57;100.00;96162.63;5076043;28;20419;-77
2023/04/18 06:48:04;;;;;;;23.70;17.77;;;;;;;5.69;100.00;96165.63;5082493;28;20044;-78
2023/04/18 06:50:32;;;;;;;19.00;17.00;;;;;;;5.64;100.00;96168.38;5086416;28;20055;-78
2023/04/18 06:52:58;;;;;;;19.83;17.33;;;;;;;5.64;100.00;96170.97;5079688;28;20041;-77
2023/04/18 06:55:25;;;;;;;22.50;17.20;;;;;;;5.56;100.00;96168.66;5081359;28;20047;-77
2023/04/18 06:57:51;;;;;;;19.80;16.95;;;;;;;5.64;100.00;96163.25;5074520;28;20060;-77
2023/04/18 07:00:18;;;;;;;21.02;17.55;;;;;;;5.62;100.00;96164.19;5077227;28;20072;-77
2023/04/18 07:02:45;;;;;;;26.25;18.88;;;;;;;5.62;100.00;96169.31;5073618;28;21524;-78
2023/04/18 07:05:11;;;;;;;20.52;18.40;;;;;;;5.56;100.00;96170.38;5080572;28;20075;-77
2023/04/18 07:07:39;;;;;;;19.15;17.10;;;;;;;5.54;100.00;96167.88;5065987;28;20053;-77
2023/04/18 07:10:08;;;;;;;22.98;17.73;;;;;;;5.50;100.00;96168.88;5076562;28;20577;-77
2023/04/18 07:12:34;;;;;;;24.92;17.63;;;;;;;5.43;100.00;96167.44;5082420;28;20052;-78
2023/04/18 07:15:02;;;;;;;20.10;18.10;;;;;;;5.67;100.00;96172.56;5075966;28;20056;-78
2023/04/18 07:17:28;;;;;;;19.38;17.35;;;;;;;5.55;100.00;96164.41;5077634;28;20476;-77
2023/04/18 07:19:55;;;;;;;19.48;16.90;;;;;;;5.55;100.00;96166.97;5058020;28;20060;-75
2023/04/18 07:22:21;;;;;;;21.77;17.90;;;;;;;5.76;100.00;96178.19;5075997;28;20055;-77
2023/04/18 07:24:49;;;;;;;24.60;19.55;;;;;;;5.66;100.00;96168.31;5064012;28;20051;-74
2023/04/18 07:27:15;;;;;;;19.48;16.55;;;;;;;5.47;100.00;96157.88;5074384;28;20048;-76
2023/04/18 07:29:42;;;;;;;22.95;17.60;;;;;;;5.43;100.00;96164.03;5079880;28;20066;-77
2023/04/18 07:32:09;;;;;;;18.73;16.80;;;;;;;5.69;100.00;96158.75;5065229;28;20044;-78
2023/04/18 07:34:36;;;;;;;23.10;18.95;;;;;;;5.71;100.00;96163.84;5066337;28;20439;-77
2023/04/18 07:37:03;;;;;;;19.00;17.15;;;;;;;5.80;100.00;96169.47;5076351;28;20049;-75
2023/04/18 07:39:30;;;;;;;21.75;17.45;;;;;;;5.73;100.00;96170.59;5077369;28;20048;-76
2023/04/18 07:41:58;;;;;;;19.98;17.58;;;;;;;5.69;100.00;96179.31;5064461;28;20049;-74
2023/04/18 07:44:25;;;;;;;21.15;16.85;;;;;;;5.70;100.00;96185.28;5079603;28;20082;-75
2023/04/18 07:46:51;;;;;;;21.02;16.55;;;;;;;5.70;100.00;96186.13;5058022;28;20056;-77
2023/04/18 07:49:18;;;;;;;22.60;17.20;;;;;;;5.56;100.00;96176.38;5070599;28;20047;-76
2023/04/18 07:51:44;;;;;;;19.02;16.92;;;;;;;5.63;100.00;96189.81;5078675;28;20094;-78
2023/04/18 07:54:11;;;;;;;21.73;16.88;;;;;;;5.80;100.00;96182.34;5083701;28;20060;-76
2023/04/18 07:56:37;;;;;;;22.00;16.60;;;;;;;6.02;100.00;96189.28;5080188;28;20049;-78
2023/04/18 07:59:05;;;;;;;28.35;17.73;;;;;;;5.93;100.00;96187.91;5079434;28;20044;-78
2023/04/18 08:01:31;;;;;;;21.77;17.95;;;;;;;6.12;100.00;96195.75;5069539;28;20057;-77
2023/04/18 08:04:00;;;;;;;24.20;17.42;;;;;;;6.10;100.00;96196.69;5068773;28;20051;-77
2023/04/18 08:06:26;;;;;;;28.10;18.48;;;;;;;5.87;100.00;96198.38;5076125;28;20053;-76
2023/04/18 08:08:53;;;;;;;19.00;17.00;;;;;;;5.87;100.00;96195.78;5066971;28;20506;-79
2023/04/18 08:11:20;;;;;;;19.92;16.33;;;;;;;6.12;100.00;96195.75;5072594;28;20052;-76
2023/04/18 08:13:46;;;;;;;23.77;18.70;;;;;;;6.28;100.00;96206.28;5066851;28;20059;-76
2023/04/18 08:16:14;;;;;;;20.33;18.13;;;;;;;6.05;100.00;96197.72;5063611;28;20040;-76
2023/04/18 08:18:40;;;;;;;21.38;17.33;;;;;;;6.16;100.00;96205.00;5082825;28;20055;-76
2023/04/18 08:21:07;;;;;;;20.17;17.65;;;;;;;6.07;100.00;96208.75;5067747;28;20044;-78
2023/04/18 08:23:33;;;;;;;19.65;16.60;;;;;;;5.96;100.00;96205.75;5076956;28;20107;-77
2023/04/18 08:26:00;;;;;;;24.90;18.27;;;;;;;5.86;100.00;96209.56;5077775;28;20055;-78
2023/04/18 08:28:26;;;;;;;25.80;17.80;;;;;;;6.18;100.00;96212.66;5081452;28;20448;-78
2023/04/18 08:30:55;;;;;;;22.13;16.95;;;;;;;6.19;100.00;96206.59;5071511;28;20052;-78
2023/04/18 08:33:23;;;;;;;19.13;17.02;;;;;;;6.34;100.00;96205.19;5077347;28;20733;-77
2023/04/18 08:35:50;;;;;;;20.10;17.95;;;;;;;6.14;100.00;96208.53;5067912;28;20049;-78
2023/04/18 08:38:17;;;;;;;24.73;18.17;;;;;;;6.18;100.00;96207.50;5079332;28;20054;-77
2023/04/18 08:40:44;;;;;;;26.48;19.60;;;;;;;6.35;100.00;96212.84;5070748;28;20040;-77
2023/04/18 08:43:13;;;;;;;23.60;18.75;;;;;;;6.35;100.00;96202.56;5080049;28;20048;-77
2023/04/18 08:45:39;;;;;;;21.33;19.02;;;;;;;6.52;100.00;96210.44;5072772;28;20040;-77
2023/04/18 08:48:06;;;;;;;21.92;18.75;;;;;;;6.53;100.00;96206.97;5081638;28;20051;-78
2023/04/18 08:50:34;;;;;;;22.85;18.35;;;;;;;6.62;100.00;96210.91;5080978;28;20134;-77
2023/04/18 08:53:01;;;;;;;21.38;17.50;;;;;;;6.71;100.00;96210.56;5076558;28;20036;-77
2023/04/18 08:55:27;;;;;;;19.80;17.73;;;;;;;6.68;100.00;96210.69;5072023;28;20055;-78
2023/04/18 08:57:54;;;;;;;23.48;17.25;;;;;;;6.66;100.00;96212.47;5071249;28;20044;-78
2023/04/18 09:00:22;;;;;;;20.48;17.10;;;;;;;6.66;100.00;96221.94;5071096;28;20071;-77
2023/04/18 09:02:53;;;;;;;21.02;18.67;;;;;;;6.66;100.00;96222.75;5074984;28;20054;-76
2023/04/18 09:05:21;;;;;;;22.13;18.38;;;;;;;6.76;100.00;96216.34;5070863;28;20049;-77
2023/04/18 09:07:51;;;;;;;23.17;18.13;;;;;;;6.91;100.00;96216.63;5078630;28;20040;-77
2023/04/18 09:10:26;;;;;;;21.65;19.20;;;;;;;6.94;100.00;96214.75;5066135;28;20056;-77
2023/04/18 09:12:52;;;;;;;23.92;18.45;;;;;;;6.98;100.00;96220.63;5073717;28;20051;-77
2023/04/18 09:15:22;;;;;;;20.63;18.40;;;;;;;7.10;100.00;96220.09;5078111;28;20048;-76
2023/04/18 09:17:52;;;;;;;22.98;19.67;;;;;;;6.83;100.00;96216.13;5071799;28;20039;-77
2023/04/18 09:20:33;;;;;;;22.05;19.40;;;;;;;6.87;100.00;96226.22;5068816;28;20427;-76
2023/04/18 09:23:02;;;;;;;20.63;18.30;;;;;;;6.72;100.00;96219.94;5076522;28;20040;-76
2023/04/18 09:25:33;;;;;;;21.98;17.90;;;;;;;6.72;100.00;96219.13;5075613;28;20056;-76
2023/04/18 09:28:01;;;;;;;20.98;18.77;;;;;;;7.00;100.00;96216.22;5080486;28;20075;-77
2023/04/18 09:30:32;;;;;;;19.30;17.40;;;;;;;6.90;100.00;96215.78;5074930;28;20045;-77
2023/04/18 09:33:01;;;;;;;21.90;16.87;;;;;;;6.89;100.00;96224.41;5082717;28;20051;-77
2023/04/18 09:35:28;;;;;;;21.80;19.00;;;;;;;7.19;100.00;96229.19;5079521;28;20114;-77
2023/04/18 09:37:54;;;;;;;22.15;17.40;;;;;;;7.11;100.00;96224.34;5076627;28;20044;-77
2023/04/18 09:40:23;;;;;;;20.55;18.35;;;;;;;7.25;100.00;96216.03;5078123;28;20044;-76
2023/04/18 09:42:51;;;;;;;22.30;19.85;;;;;;;7.37;100.00;96217.25;5071545;28;20074;-76
2023/04/18 09:45:18;;;;;;;20.92;17.80;;;;;;;7.45;100.00;96210.88;5075957;28;20079;-76
2023/04/18 09:47:45;;;;;;;23.13;17.60;;;;;;;7.49;100.00;96215.00;5062437;28;20047;-77
2023/04/18 09:50:11;;;;;;;19.50;17.33;;;;;;;7.56;100.00;96212.97;5081794;28;20052;-76
2023/04/18 09:52:40;;;;;;;21.23;17.50;;;;;;;7.51;100.00;96222.66;5074546;28;20404;-75
2023/04/18 09:55:08;;;;;;;24.67;18.67;;;;;;;7.70;100.00;96220.94;5069296;28;20049;-78
2023/04/18 09:57:39;;;;;;;23.92;18.13;;;;;;;7.83;100.00;96226.41;5074100;28;20058;-78
2023/04/18 10:00:12;;;;;;;21.67;18.17;;;;;;;7.48;100.00;96215.06;5079863;28;20048;-79
2023/04/18 10:02:54;;;;;;;35.75;17.13;;;;;;;7.60;100.00;96211.09;5068302;28;20041;-78
2023/04/18 10:05:25;;;;;;;27.48;19.83;;;;;;;7.86;100.00;96208.22;5080601;28;20059;-77
2023/04/18 10:07:54;;;;;;;23.13;19.33;;;;;;;7.74;100.00;96213.91;5076299;28;20041;-77
2023/04/18 10:10:21;;;;;;;20.55;18.35;;;;;;;7.70;100.00;96204.63;5072648;28;20051;-77
2023/04/18 10:12:50;;;;;;;25.17;19.55;;;;;;;7.81;100.00;96209.31;5076017;28;20044;-77
2023/04/18 10:15:19;;;;;;;25.75;20.08;;;;;;;7.76;100.00;96214.69;5073174;28;20056;-77
2023/04/18 10:17:53;;;;;;;22.65;18.02;;;;;;;7.97;100.00;96218.91;5082450;28;20048;-78
2023/04/18 10:20:22;;;;;;;25.63;18.98;;;;;;;7.97;100.00;96205.13;5066923;28;20052;-77
2023/04/18 10:22:50;;;;;;;23.02;18.30;;;;;;;8.02;100.00;96210.94;5077374;28;20139;-77
2023/04/18 10:25:50;;;;;;;21.67;19.35;;;;;;;7.94;100.00;96213.03;5070706;28;20060;-78
2023/04/18 10:28:19;;;;;;;22.70;19.35;;;;;;;8.04;100.00;96210.84;5080681;28;20491;-77
2023/04/18 10:31:01;;;;;;;19.20;16.95;;;;;;;8.20;100.00;96214.41;5072200;28;20098;-77
2023/04/18 10:33:33;;;;;;;23.08;18.27;;;;;;;8.19;100.00;96213.59;5069496;28;20067;-78
2023/04/18 10:36:15;;;;;;;21.85;16.15;;;;;;;8.39;100.00;96214.44;5079459;28;20055;-77
2023/04/18 10:38:48;;;;;;;19.13;17.13;;;;;;;8.23;100.00;96206.50;5076461;28;20055;-77
2023/04/18 10:41:21;;;;;;;20.48;17.05;;;;;;;8.49;100.00;96210.47;5084429;28;20048;-77
2023/04/18 10:44:06;;;;;;;;;;;;;;;8.41;100.00;96216.00;5072609;28;20047;-77
2023/04/18 10:46:34;;;;;;;19.65;16.17;;;;;;;8.47;100.00;96209.75;5069011;28;19924;-80
2023/04/18 10:49:14;;;;;;;19.50;17.40;;;;;;;8.45;100.00;96217.56;5077995;28;20045;-79
2023/04/18 10:51:40;;;;;;;20.58;17.67;;;;;;;8.36;100.00;96210.22;5077927;28;20120;-78
2023/04/18 10:54:09;;;;;;;19.27;17.20;;;;;;;8.40;100.00;96209.19;5079546;28;20051;-78
2023/04/18 10:56:36;;;;;;;21.58;17.25;;;;;;;8.76;100.00;96207.50;5070805;28;20055;-78
2023/04/18 10:59:03;;;;;;;26.58;18.70;;;;;;;8.92;100.00;96206.66;5068392;28;20049;-78
2023/04/18 11:01:31;;;;;;;20.23;17.23;;;;;;;9.12;100.00;96208.28;5076827;28;20044;-78
2023/04/18 11:03:59;;;;;;;19.02;15.88;;;;;;;9.14;100.00;96196.09;5077660;28;20043;-77
2023/04/18 11:06:27;;;;;;;18.75;16.83;;;;;;;9.53;100.00;96197.59;5078989;28;20094;-77
2023/04/18 11:09:09;;;;;;;17.40;15.60;;;;;;;9.61;100.00;96195.44;5070491;28;20502;-76
2023/04/18 11:11:35;;;;;;;17.48;15.77;;;;;;;9.81;100.00;96186.63;5086816;28;20097;-77
2023/04/18 11:14:02;;;;;;;24.52;16.55;;;;;;;9.83;100.00;96191.72;5076474;28;20062;-76
2023/04/18 11:16:30;;;;;;;19.25;14.75;;;;;;;9.62;100.00;96181.59;5069113;28;20053;-77
2023/04/18 11:18:56;;;;;;;18.42;14.43;;;;;;;9.69;100.00;96187.28;5075965;28;20079;-77